Station: PLZEN LINE, ICAO: LKLN, Synop: ,
Koordinaten: 49 41 N 013 16 E, Hoehe: 362m, Entfernung: 46.84km
2017/12/12 08:31
LKLN 120831Z AUTO 24015G26KT 210V270 9999 SCT037 BKN160 04/M02 Q1003


Station: GAERMERSDORF, ICAO: EDZH, Synop: ,
Koordinaten: 49 25 N 011 54 E, Hoehe: 419m, Entfernung: 64.52km


Station: Kuemmersruck, ICAO: ETGK, Synop: Synop: 10771,
Koordinaten: 4926'00''N 01154'00''E, Hoehe: 419m, Entfernung: 64.60km


Station: Grafenwoehr, ICAO: ETIC, Synop: Synop: 10687,
Koordinaten: 4942'00''N 01157'00''E, Hoehe: 415m, Entfernung: 69.46km
2017/12/12 08:30
ETIC 120830Z AUTO 25008G19KT 9999 OVC022 02/M02 A2964 RMK AO2 RAB01E11RAB19E30 SLP057 $


Station: GRAFENWOHR (USA, ICAO: EDIC, Synop: ,
Koordinaten: 49 42 N 011 56 E, Hoehe: 415m, Entfernung: 70.51km


Station: Hohenfels, ICAO: ETIH, Synop: Synop: 10775,
Koordinaten: 4913'00''N 01150'00''E, Hoehe: 442m, Entfernung: 72.23km
2017/12/12 07:56
ETIH 120756Z AUTO 28018G26KT 9999 -RA OVC026 02/00 A2965 RMK AO2 PK WND 26026/45 RAB49 OVC V BKN SLPNO P0000 T00201003 $


mehr Wetter
WetterInfo - adds.pl 2.6.003 DL3EL © 2004-2017 [154897]